Ann Arbor, MI

1:54 AM EDT on August 25, 2016 (GMT -0400)
Walker Briar Works | | Change Station

Elev 961 ft 42.26 °N, 83.77 °W | Updated 4 minutes ago

Clear
Clear
72.5 °F
Feels Like 72.5 °F
N
0.0
Wind Variable Wind from SW
Gusts 0.7 mph

Today
High -- | Low -- °F
--% Chance of Precip.
Yesterday
High -- | Low -- °F
Precip. -- in
Pressure 29.96 in
Visibility 3.0 miles
Clouds Clear
Dew Point 72 °F
Humidity 99%
Rainfall 0.00 in
Snow Depth Not available.
6:53 AM 8:19 PM
Waning Gibbous, 49% visible
SPECI KARB 250519Z AUTO 17004KT 3SM BR CLR 21/21 A2996 RMK AO2 T02110211 TSNO
Pressure 29.96 in
Visibility 3.0 miles
Clouds Clear
Dew Point 72 °F
Humidity 99%
Rainfall 0.00 in
Snow Depth Not available.
6:53 AM 8:19 PM
Waning Gibbous, 49% visible
SPECI KARB 250519Z AUTO 17004KT 3SM BR CLR 21/21 A2996 RMK AO2 T02110211 TSNO

10-Day Weather Forecast

Almanac

Astronomy

Aug. 25, 2016 Rise Set
Actual Time
Civil Twilight
Nautical Twilight
Astronomical Twilight
Moon
Length of Visible Light
Length of Day
Tomorrow will be .
, % of the Moon is Illuminated

Today's Extremes

State Highs State Lows

Community

WunderPhotos

Upload Photos

1,934,799 photos uploaded!

WunderBlog® & News

Nearby

Air Quality

  Air Quality AQ Index Pollutant
Not available.

Snow Depth

Station Depth Elevation

Earthquake Activity

City Distance Mag. Time & Date
Minimum magnitude displayed is 2.5.

Coastal Water Temperatures

Place Temperature

Stations

Nearby Weather Stations

Station Location Temp. Windchill Dew Point Humidity Wind Precip. Elev Updated Type
                   

Watches & Warnings

There are currently no watches in effect.